Data for 12/21/2007

Time Sea-Level Adjusted Pressure Absolute Pressure Temperature Relative Humidity Dew Point   
(mb) (inHg) (mb) (inHg) (C) (F) (%) (C) (F)
00:05 1011 29.85 841 24.83 -3.3 26 88 -5.1 22.9
00:10 1011 29.85 841 24.83 -3.4 25.9 87 -5.2 22.7
00:15 1011 29.85 841 24.83 -3.4 26 86 -5.4 22.3
00:20 1012 29.88 841 24.83 -3.3 26 85 -5.5 22.1
00:25 1012 29.88 841 24.83 -3.3 26.1 84 -5.6 21.9
00:30 1012 29.88 841 24.83 -3.2 26.2 85 -5.5 22.1
00:35 1012 29.88 841 24.83 -3.2 26.2 87 -5.1 22.8
00:40 1012 29.88 841 24.83 -3.2 26.3 88 -4.9 23.1
00:45 1012 29.88 841 24.83 -3.3 26 89 -4.9 23.2
00:50 1012 29.88 841 24.83 -3.6 25.4 91 -4.9 23.1
00:55 1012 29.88 841 24.83 -3.7 25.3 91 -5 23
01:00 1012 29.88 841 24.83 -3.8 25.2 92 -4.9 23.2
01:05 1012 29.88 841 24.83 -3.8 25.1 92 -5 23
01:10 1012 29.88 841 24.83 -3.8 25.1 92 -4.9 23.1
01:15 1012 29.88 841 24.83 -3.7 25.4 91 -4.9 23.1
01:20 1012 29.88 841 24.83 -3.6 25.5 86 -5.6 22
01:25 1012 29.88 841 24.83 -3.4 25.8 86 -5.4 22.3
01:30 1012 29.88 841 24.83 -3.4 25.9 77 -6.9 19.6
01:35 1012 29.88 841 24.83 -3.3 26 70 -8 17.6
01:40 1012 29.88 841 24.83 -3.3 26 67 -8.6 16.5
01:45 1012 29.88 841 24.83 -3.3 26 63 -9.3 15.2
01:50 1012 29.88 841 24.83 -3.4 25.8 64 -9.3 15.3
01:55 1012 29.88 841 24.83 -3.5 25.6 65 -9.3 15.3
02:00 1012 29.88 842 24.86 -3.6 25.5 65 -9.2 15.5
02:05 1013 29.91 842 24.86 -3.7 25.4 67 -9 15.8
02:10 1013 29.91 842 24.86 -3.7 25.4 67 -9 15.9
02:15 1013 29.91 842 24.86 -3.7 25.4 67 -9 15.9
02:20 1013 29.91 842 24.86 -3.7 25.4 66 -9.1 15.5
02:25 1013 29.91 842 24.86 -3.7 25.3 67 -9.1 15.7
02:30 1013 29.91 842 24.86 -3.9 25 66 -9.4 15.1
02:35 1013 29.91 842 24.86 -4 24.7 66 -9.4 15
02:40 1013 29.91 842 24.86 -4.2 24.4 67 -9.4 15
02:45 1013 29.91 843 24.89 -4.4 24.1 67 -9.7 14.5
02:50 1013 29.91 843 24.89 -4.6 23.7 67 -9.8 14.4
02:55 1013 29.91 843 24.89 -4.7 23.5 68 -9.8 14.4
03:00 1013 29.91 843 24.89 -4.9 23.3 68 -9.9 14.2
03:05 1014 29.94 843 24.89 -5 23.1 68 -10 13.9
03:10 1014 29.94 843 24.89 -5 23 67 -10.2 13.6
03:15 1014 29.94 843 24.89 -5 23.1 66 -10.3 13.5
03:20 1014 29.94 843 24.89 -5.1 22.9 67 -10.3 13.4
03:25 1014 29.94 843 24.89 -5.1 22.8 66 -10.4 13.2
03:30 1014 29.94 843 24.89 -5.1 22.8 66 -10.5 13.1
03:35 1014 29.94 843 24.89 -5.2 22.7 66 -10.6 12.8
03:40 1014 29.94 843 24.89 -5.2 22.7 66 -10.5 13
03:45 1014 29.94 843 24.89 -5.2 22.6 67 -10.5 13.1
03:50 1014 29.94 843 24.89 -5.5 22.2 67 -10.6 12.9
03:55 1014 29.94 843 24.89 -5.4 22.2 67 -10.6 12.8
04:00 1014 29.94 843 24.89 -5.3 22.4 66 -10.6 12.9
04:05 1014 29.94 843 24.89 -5.1 22.9 67 -10.4 13.3
04:10 1014 29.94 843 24.89 -4.9 23.1 66 -10.3 13.5
04:15 1014 29.94 844 24.92 -4.8 23.3 67 -10.1 13.8
04:20 1014 29.94 844 24.92 -5 23 68 -10 14
04:25 1015 29.97 844 24.92 -5.3 22.5 71 -9.8 14.3
04:30 1015 29.97 844 24.92 -5.2 22.6 70 -9.9 14.2
04:35 1015 29.97 844 24.92 -5 23 68 -10 14.1
04:40 1015 29.97 844 24.92 -4.9 23.1 69 -9.7 14.5
04:45 1015 29.97 844 24.92 -4.9 23.3 68 -9.8 14.3
04:50 1015 29.97 844 24.92 -5.2 22.7 72 -9.5 15
04:55 1015 29.97 844 24.92 -5.2 22.6 72 -9.5 14.8
05:00 1015 29.97 844 24.92 -5.2 22.6 71 -9.7 14.5
05:05 1015 29.97 844 24.92 -5.3 22.5 73 -9.4 15
05:10 1015 29.97 844 24.92 -5.3 22.5 71 -9.6 14.6
05:15 1015 29.97 844 24.92 -5.4 22.2 72 -9.7 14.6
05:20 1015 29.97 844 24.92 -5.8 21.5 70 -10.5 13.1
05:25 1015 29.97 844 24.92 -5.7 21.7 72 -10 13.9
05:30 1015 29.97 844 24.92 -5.5 22.1 72 -9.8 14.4
05:35 1015 29.97 844 24.92 -5.4 22.3 73 -9.5 14.8
05:40 1015 29.97 844 24.92 -5.4 22.3 71 -9.9 14.2
05:45 1015 29.97 844 24.92 -5.3 22.4 72 -9.7 14.6
05:50 1015 29.97 844 24.92 -5.2 22.6 70 -9.8 14.3
05:55 1015 29.97 845 24.95 -5.1 22.8 68 -10.1 13.8
06:00 1015 29.97 845 24.95 -5 23 69 -9.8 14.3
06:05 1015 29.97 845 24.95 -4.9 23.2 71 -9.5 15
06:10 1016 30 845 24.95 -5 23 68 -10 14.1
06:15 1016 30 845 24.95 -5 23 68 -9.9 14.1
06:20 1016 30 845 24.95 -5 23.1 67 -10.1 13.8
06:25 1016 30 845 24.95 -5 23.1 68 -10 14.1
06:30 1016 30 845 24.95 -5 23.1 67 -10.1 13.8
06:35 1016 30 845 24.95 -5 23.1 66 -10.3 13.4
06:40 1016 30 845 24.95 -5 23 67 -10.1 13.7
06:45 1016 30 845 24.95 -5 23 67 -10.2 13.7
06:50 1016 30 845 24.95 -5.1 22.9 66 -10.5 13.2
06:55 1016 30 845 24.95 -5.1 22.8 67 -10.3 13.5
07:00 1016 30 845 24.95 -5.2 22.7 67 -10.3 13.4
07:05 1016 30 845 24.95 -5.2 22.7 67 -10.4 13.2
07:10 1016 30 845 24.95 -5.2 22.7 67 -10.4 13.2
07:15 1016 30 846 24.98 -5.3 22.5 68 -10.3 13.4
07:20 1017 30.03 846 24.98 -5.3 22.5 69 -10.1 13.8
07:25 1017 30.03 846 24.98 -5.4 22.4 70 -9.9 14.1
07:30 1017 30.03 846 24.98 -5.7 21.8 72 -9.9 14.1
07:35 1017 30.03 846 24.98 -5.8 21.5 73 -9.9 14.1
07:40 1017 30.03 846 24.98 -5.8 21.5 74 -9.7 14.5
07:45 1017 30.03 846 24.98 -5.7 21.8 72 -9.9 14.2
07:50 1017 30.03 846 24.98 -5.6 21.9 70 -10.2 13.7
07:55 1017 30.03 846 24.98 -5.6 21.9 70 -10.3 13.5
08:00 1017 30.03 846 24.98 -5.5 22.1 70 -10.1 13.8
08:05 1017 30.03 846 24.98 -5.6 21.9 71 -10 13.9
08:10 1017 30.03 847 25.01 -5.5 22.1 69 -10.4 13.3
08:15 1017 30.03 847 25.01 -5.5 22.1 69 -10.4 13.3
08:20 1018 30.06 847 25.01 -5.5 22.1 71 -10 14
08:25 1018 30.06 847 25.01 -5.8 21.6 69 -10.6 12.8
08:30 1018 30.06 847 25.01 -5.9 21.5 69 -10.7 12.7
08:35 1018 30.06 847 25.01 -5.8 21.6 69 -10.6 12.9
08:40 1018 30.06 847 25.01 -5.7 21.8 67 -10.8 12.5
08:45 1018 30.06 847 25.01 -5.6 22 67 -10.8 12.5
08:50 1018 30.06 847 25.01 -5.5 22.1 67 -10.7 12.7
08:55 1018 30.06 847 25.01 -5.4 22.2 68 -10.5 13.1
09:00 1018 30.06 847 25.01 -5.3 22.5 69 -10.1 13.7
09:05 1018 30.06 847 25.01 -5.3 22.4 69 -10.1 13.8
09:10 1018 30.06 847 25.01 -5.2 22.6 68 -10.2 13.6
09:15 1018 30.06 847 25.01 -5 23 66 -10.4 13.2
09:20 1018 30.06 847 25.01 -5.1 22.9 65 -10.7 12.8
09:25 1018 30.06 847 25.01 -5.4 22.3 68 -10.5 13.2
09:30 1018 30.06 847 25.01 -5.4 22.2 67 -10.7 12.8
09:35 1018 30.06 847 25.01 -5.4 22.3 67 -10.5 13
09:40 1018 30.06 847 25.01 -5.5 22.1 67 -10.7 12.7
09:45 1018 30.06 847 25.01 -5.4 22.2 66 -10.8 12.6
09:50 1018 30.06 847 25.01 -5.3 22.5 64 -11.1 12
09:55 1018 30.06 848 25.04 -5.1 22.9 65 -10.7 12.7
10:00 1018 30.06 848 25.04 -5.1 22.9 65 -10.6 12.9
10:05 1019 30.09 848 25.04 -5.1 22.8 68 -10.1 13.9
10:10 1019 30.09 848 25.04 -4.9 23.2 68 -9.9 14.1
10:15 1019 30.09 848 25.04 -4.3 24.2 67 -9.6 14.8
10:20 1019 30.09 848 25.04 -3.9 24.9 66 -9.4 15
10:25 1019 30.09 848 25.04 -3.6 25.5 65 -9.2 15.4
10:30 1019 30.09 848 25.04 -3.5 25.7 65 -9.2 15.5
10:35 1019 30.09 848 25.04 -4 24.9 70 -8.6 16.4
10:40 1019 30.09 848 25.04 -4.1 24.6 72 -8.4 16.8
10:45 1019 30.09 848 25.04 -4.3 24.3 73 -8.4 16.8
10:50 1019 30.09 848 25.04 -4.1 24.7 70 -8.7 16.4
10:55 1019 30.09 848 25.04 -3.7 25.4 71 -8.2 17.2
11:00 1019 30.09 848 25.04 -3 26.6 69 -8 17.6
11:05 1019 30.09 848 25.04 -3.1 26.5 73 -7.2 19
11:10 1019 30.09 848 25.04 -3.6 25.5 73 -7.7 18.1
11:15 1019 30.09 848 25.04 -3.3 26 73 -7.5 18.5
11:20 1019 30.09 848 25.04 -3.2 26.3 72 -7.5 18.6
11:25 1019 30.09 848 25.04 -3 26.6 71 -7.6 18.3
11:30 1019 30.09 848 25.04 -3 26.7 68 -8.1 17.4
11:35 1019 30.09 848 25.04 -2.7 27.2 63 -8.8 16.2
11:40 1019 30.09 848 25.04 -2.7 27.2 65 -8.3 17.1
11:45 1019 30.09 848 25.04 -2.3 27.9 60 -9.1 15.7
11:50 1019 30.09 848 25.04 -2 28.4 59 -9.1 15.7
11:55 1019 30.09 848 25.04 -1.9 28.6 57 -9.2 15.4
12:00 1019 30.09 848 25.04 -1.8 28.8 59 -8.7 16.3
12:05 1019 30.09 848 25.04 -1.7 29 55 -9.6 14.6
12:10 1019 30.09 848 25.04 -1.9 28.6 56 -9.6 14.8
12:15 1019 30.09 848 25.04 -2.2 28 55 -10.1 13.8
12:20 1019 30.09 848 25.04 -1.7 28.9 51 -10.5 13.1
12:25 1019 30.09 848 25.04 -2.2 28 60 -9 15.8
12:30 1019 30.09 848 25.04 -3 26.6 61 -9.5 14.9
12:35 1019 30.09 848 25.04 -3.4 25.9 61 -9.9 14.2
12:40 1019 30.09 848 25.04 -3.1 26.5 59 -10 14
12:45 1019 30.09 848 25.04 -3.2 26.2 61 -9.7 14.5
12:50 1019 30.09 848 25.04 -2.9 26.7 57 -10.2 13.6
12:55 1019 30.09 848 25.04 -2.7 27.1 58 -10 14
13:00 1019 30.09 848 25.04 -2.7 27.1 57 -10.1 13.9
13:05 1019 30.09 848 25.04 -2.5 27.5 57 -9.8 14.4
13:10 1019 30.09 848 25.04 -2.4 27.7 53 -10.7 12.8
13:15 1019 30.09 848 25.04 -2.6 27.4 54 -10.7 12.7
13:20 1019 30.09 848 25.04 -2.4 27.6 50 -11.5 11.3
13:25 1019 30.09 848 25.04 -2.1 28.3 51 -11 12.2
13:30 1019 30.09 848 25.04 -2.3 27.8 54 -10.6 13
13:35 1019 30.09 848 25.04 -2.2 28 50 -11.2 11.8
13:40 1019 30.09 848 25.04 -2.4 27.7 51 -11.2 11.9
13:45 1019 30.09 848 25.04 -2.7 27.1 65 -8.4 16.9
13:50 1019 30.09 848 25.04 -3.7 25.4 77 -7.1 19.2
13:55 1019 30.09 848 25.04 -4.2 24.4 80 -7.2 19.1
14:00 1019 30.09 848 25.04 -4.2 24.5 77 -7.6 18.3
14:05 1019 30.09 848 25.04 -3.2 26.3 72 -7.6 18.3
14:10 1019 30.09 848 25.04 -3.1 26.4 71 -7.6 18.2
14:15 1019 30.09 848 25.04 -3.1 26.5 70 -7.8 18
14:20 1019 30.09 848 25.04 -3.1 26.4 70 -7.8 18
14:25 1019 30.09 848 25.04 -3.2 26.2 76 -6.9 19.5
14:30 1019 30.09 849 25.07 -3.6 25.5 77 -7.1 19.2
14:35 1019 30.09 849 25.07 -3.7 25.4 74 -7.7 18.1
14:40 1019 30.09 849 25.07 -3.7 25.4 77 -7.1 19.2
14:45 1020 30.12 849 25.07 -4.2 24.4 84 -6.6 20.2
14:50 1020 30.12 849 25.07 -4.5 23.9 85 -6.7 20
14:55 1020 30.12 849 25.07 -4.2 24.5 82 -6.8 19.7
15:00 1020 30.12 849 25.07 -3.9 25 78 -7.1 19.2
15:05 1020 30.12 849 25.07 -3.9 25 77 -7.3 18.9
15:10 1020 30.12 849 25.07 -4.2 24.4 77 -7.6 18.4
15:15 1020 30.12 849 25.07 -4.4 24.1 77 -7.8 17.9
15:20 1020 30.12 849 25.07 -4.2 24.4 78 -7.5 18.4
15:25 1020 30.12 849 25.07 -4.7 23.5 79 -7.9 17.8
15:30 1020 30.12 849 25.07 -5 22.9 78 -8.2 17.2
15:35 1020 30.12 849 25.07 -5.3 22.5 79 -8.4 16.9
15:40 1020 30.12 849 25.07 -6 21.2 82 -8.6 16.5
15:45 1020 30.12 849 25.07 -6.5 20.3 82 -9.1 15.6
15:50 1020 30.12 849 25.07 -6.5 20.3 80 -9.5 15
15:55 1020 30.12 849 25.07 -6.1 21.1 76 -9.6 14.6
16:00 1020 30.12 849 25.07 -5.8 21.6 75 -9.6 14.7
16:05 1020 30.12 849 25.07 -5.8 21.6 76 -9.4 15
16:10 1020 30.12 849 25.07 -5.6 21.9 72 -9.9 14.2
16:15 1020 30.12 849 25.07 -5.2 22.6 68 -10.2 13.6
16:20 1020 30.12 849 25.07 -5.1 22.8 68 -10.1 13.9
16:25 1020 30.12 849 25.07 -5.1 22.7 68 -10.1 13.8
16:30 1020 30.12 849 25.07 -5.1 22.8 68 -10.1 13.9
16:35 1020 30.12 850 25.1 -5.2 22.6 68 -10.3 13.5
16:40 1020 30.12 850 25.1 -5.1 22.7 67 -10.3 13.5
16:45 1020 30.12 850 25.1 -5.1 22.8 65 -10.6 12.9
16:50 1021 30.15 850 25.1 -5.3 22.4 65 -10.9 12.3
16:55 1021 30.15 850 25.1 -5.4 22.3 65 -11.1 12.1
17:00 1021 30.15 850 25.1 -5.4 22.3 62 -11.6 11.1
17:05 1021 30.15 850 25.1 -5.2 22.7 62 -11.4 11.5
17:10 1021 30.15 850 25.1 -5.1 22.8 62 -11.3 11.7
17:15 1021 30.15 850 25.1 -5.4 22.3 63 -11.4 11.5
17:20 1021 30.15 850 25.1 -5.7 21.7 63 -11.6 11.2
17:25 1021 30.15 850 25.1 -6.1 21 64 -11.9 10.6
17:30 1021 30.15 850 25.1 -6.3 20.7 62 -12.4 9.7
17:35 1021 30.15 850 25.1 -6.1 21.1 60 -12.6 9.4
17:40 1021 30.15 850 25.1 -6 21.2 59 -12.7 9.1
17:45 1021 30.15 850 25.1 -6.1 21.1 59 -12.8 9
17:50 1021 30.15 850 25.1 -6.2 20.8 59 -12.9 8.8
17:55 1021 30.15 850 25.1 -6.4 20.4 60 -13 8.6
18:00 1021 30.15 850 25.1 -6.8 19.8 60 -13.2 8.2
18:05 1021 30.15 851 25.13 -6.6 20.1 58 -13.7 7.4
18:10 1021 30.15 851 25.13 -6.5 20.3 56 -13.8 7.1
18:15 1021 30.15 851 25.13 -6.4 20.4 57 -13.7 7.4
18:20 1021 30.15 851 25.13 -6.4 20.5 56 -13.9 7
18:25 1022 30.18 851 25.13 -6.4 20.6 55 -13.9 7
18:30 1022 30.18 851 25.13 -6.4 20.5 55 -14 6.8
18:35 1022 30.18 851 25.13 -6.5 20.3 56 -13.9 6.9
18:40 1022 30.18 851 25.13 -6.7 19.9 56 -14 6.8
18:45 1022 30.18 851 25.13 -6.6 20.1 56 -13.9 7
18:50 1022 30.18 851 25.13 -6.8 19.8 57 -14 6.8
18:55 1022 30.18 851 25.13 -6.8 19.7 57 -13.9 7
19:00 1022 30.18 851 25.13 -6.9 19.5 57 -14.1 6.6
19:05 1022 30.18 851 25.13 -6.9 19.6 57 -14.1 6.7
19:10 1022 30.18 851 25.13 -7.1 19.3 57 -14.2 6.4
19:15 1022 30.18 851 25.13 -7 19.4 56 -14.3 6.2
19:20 1022 30.18 851 25.13 -6.8 19.8 55 -14.4 6
19:25 1022 30.18 851 25.13 -6.9 19.7 56 -14.3 6.2
19:30 1022 30.18 851 25.13 -6.7 19.9 55 -14.3 6.3
19:35 1022 30.18 851 25.13 -6.7 20 55 -14.2 6.4
19:40 1022 30.18 851 25.13 -6.8 19.7 55 -14.4 6
19:45 1022 30.18 851 25.13 -6.9 19.6 55 -14.5 5.9
19:50 1022 30.18 852 25.16 -7.1 19.2 56 -14.5 5.8
19:55 1022 30.18 852 25.16 -7.8 17.9 59 -14.6 5.8
20:00 1022 30.18 852 25.16 -8.7 16.3 60 -15 4.9
20:05 1022 30.18 852 25.16 -9 15.9 60 -15.3 4.4
20:10 1022 30.18 852 25.16 -9.2 15.5 61 -15.3 4.4
20:15 1022 30.18 852 25.16 -9.3 15.3 61 -15.5 4.1
20:20 1023 30.21 852 25.16 -9.1 15.7 59 -15.6 3.9
20:25 1023 30.21 852 25.16 -8.7 16.4 57 -15.7 3.8
20:30 1023 30.21 852 25.16 -8.5 16.6 57 -15.5 4.1
20:35 1023 30.21 852 25.16 -8.7 16.4 57 -15.7 3.8
20:40 1023 30.21 852 25.16 -8.6 16.5 56 -15.9 3.3
20:45 1023 30.21 852 25.16 -8.3 17.1 55 -15.9 3.5
20:50 1023 30.21 852 25.16 -8.1 17.4 54 -15.8 3.6
20:55 1023 30.21 852 25.16 -8.1 17.4 55 -15.6 3.9
21:00 1023 30.21 852 25.16 -8.2 17.2 55 -15.8 3.6
21:05 1023 30.21 852 25.16 -8.4 16.8 55 -15.9 3.4
21:10 1023 30.21 852 25.16 -8.6 16.4 55 -16.1 3.1
21:15 1023 30.21 852 25.16 -8.6 16.5 56 -15.9 3.4
21:20 1023 30.21 852 25.16 -8.3 17 55 -15.9 3.3
21:25 1023 30.21 852 25.16 -7.9 17.8 54 -15.8 3.6
21:30 1023 30.21 852 25.16 -7.7 18.2 53 -15.7 3.7
21:35 1023 30.21 852 25.16 -7.8 17.9 53 -15.8 3.6
21:40 1023 30.21 852 25.16 -8 17.7 54 -15.7 3.7
21:45 1023 30.21 852 25.16 -7.8 17.9 54 -15.6 3.9
21:50 1023 30.21 852 25.16 -7.8 17.9 54 -15.6 3.9
21:55 1023 30.21 852 25.16 -8.1 17.4 55 -15.6 3.9
22:00 1023 30.21 852 25.16 -8.3 17.2 55 -15.7 3.7
22:05 1023 30.21 852 25.16 -8.1 17.4 54 -15.7 3.7
22:10 1023 30.21 852 25.16 -8 17.6 55 -15.6 3.9
22:15 1023 30.21 852 25.16 -8.2 17.3 55 -15.7 3.8
22:20 1023 30.21 852 25.16 -8.1 17.4 55 -15.7 3.7
22:25 1023 30.21 852 25.16 -7.8 17.9 53 -15.7 3.7
22:30 1023 30.21 852 25.16 -7.5 18.4 52 -15.8 3.6
22:35 1023 30.21 852 25.16 -7.4 18.6 51 -15.8 3.5
22:40 1023 30.21 852 25.16 -7.4 18.8 51 -15.8 3.6
22:45 1023 30.21 852 25.16 -7.4 18.8 51 -15.7 3.7
22:50 1023 30.21 852 25.16 -7.4 18.7 52 -15.6 4
22:55 1023 30.21 852 25.16 -7.9 17.8 54 -15.6 4
23:00 1023 30.21 852 25.16 -8.1 17.3 55 -15.8 3.6
23:05 1023 30.21 852 25.16 -8.3 17 56 -15.7 3.8
23:10 1023 30.21 852 25.16 -8.5 16.6 56 -15.7 3.7
23:15 1023 30.21 852 25.16 -9.3 15.4 59 -15.9 3.3
23:20 1023 30.21 852 25.16 -10.2 13.6 62 -16.3 2.7
23:25 1023 30.21 852 25.16 -10.7 12.8 62 -16.7 2
23:30 1023 30.21 852 25.16 -10.4 13.3 61 -16.6 2.2
23:35 1023 30.21 852 25.16 -10.1 13.9 59 -16.6 2
23:40 1023 30.21 852 25.16 -9.6 14.7 57 -16.5 2.2
23:45 1023 30.21 852 25.16 -9 15.8 56 -16.4 2.6
23:50 1023 30.21 852 25.16 -8.6 16.5 55 -16.2 2.9
23:55 1023 30.21 852 25.16 -8.5 16.7 54 -16.1 2.9
24:00 1023 30.21 852 25.16 -8.6 16.5 55 -16.1 3